Time;durP1;ratioP1;P1;durP2;ratioP2;P2;SDS_P1;SDS_P2;PMS_P1;PMS_P2;Temp;Humidity;BMP_temperature;BMP_pressure;BME280_temperature;BME280_humidity;BME280_pressure;Samples;Min_cycle;Max_cycle;Signal;HPM_P1;HPM_P2
2021/12/04 00:00:08;;;;;;;12.40;4.45;;;11.40;88.60;;;;;;4933924;29;20377;-69
2021/12/04 00:03:17;;;;;;;8.10;4.57;;;11.40;89.90;;;;;;4934140;29;20211;-69
2021/12/04 00:06:27;;;;;;;10.05;4.10;;;11.40;88.70;;;;;;4934001;29;20050;-70
2021/12/04 00:09:32;;;;;;;8.27;4.10;;;11.20;88.80;;;;;;4933850;29;20407;-68
2021/12/04 00:12:36;;;;;;;9.45;3.97;;;11.10;89.00;;;;;;4933668;29;20605;-69
2021/12/04 00:15:39;;;;;;;7.18;4.03;;;11.00;89.40;;;;;;4933893;29;20091;-70
2021/12/04 00:18:43;;;;;;;9.50;4.63;;;10.90;89.50;;;;;;4933771;29;20067;-69
2021/12/04 00:21:47;;;;;;;12.63;4.72;;;10.90;89.50;;;;;;4933582;29;20062;-70
2021/12/04 00:24:51;;;;;;;11.27;5.20;;;10.80;90.00;;;;;;4935624;29;20039;-70
2021/12/04 00:27:56;;;;;;;10.55;4.85;;;10.80;90.60;;;;;;4937703;29;20117;-70
2021/12/04 00:31:05;;;;;;;7.68;3.85;;;10.70;90.80;;;;;;4936836;29;20388;-69
2021/12/04 00:34:09;;;;;;;11.27;4.43;;;10.80;90.30;;;;;;4937317;29;20144;-70
2021/12/04 00:50:12;;;;;;;14.90;5.70;;;10.60;91.30;;;;;;4937273;29;20050;-69
2021/12/04 00:53:16;;;;;;;11.23;5.75;;;10.60;91.70;;;;;;4937616;29;20392;-69
2021/12/04 00:56:21;;;;;;;9.93;5.47;;;10.50;91.70;;;;;;4937277;29;20042;-69
2021/12/04 00:59:26;;;;;;;8.07;4.60;;;10.50;92.00;;;;;;4936466;29;20420;-70
2021/12/04 01:02:30;;;;;;;8.52;4.15;;;10.50;92.10;;;;;;4936876;29;20063;-70
2021/12/04 01:05:34;;;;;;;6.88;3.47;;;10.50;91.90;;;;;;4936100;29;20043;-69
2021/12/04 01:08:39;;;;;;;7.60;3.30;;;10.30;91.90;;;;;;4937055;29;20050;-69
2021/12/04 01:11:44;;;;;;;13.07;3.80;;;10.10;92.10;;;;;;4936725;29;20043;-68
2021/12/04 01:14:48;;;;;;;8.90;3.83;;;10.10;91.60;;;;;;4936961;29;20400;-69
2021/12/04 01:17:52;;;;;;;9.88;4.35;;;10.00;91.80;;;;;;4936941;29;20047;-68
2021/12/04 01:20:57;;;;;;;7.90;4.35;;;10.00;92.20;;;;;;4935921;29;20051;-69
2021/12/04 01:24:01;;;;;;;12.20;3.28;;;10.00;91.90;;;;;;4936582;29;20047;-69
2021/12/04 01:27:08;;;;;;;5.65;1.20;;;9.90;90.70;;;;;;4936566;29;20042;-69
2021/12/04 01:30:12;;;;;;;4.68;1.98;;;10.00;89.80;;;;;;4936593;29;20067;-69
2021/12/04 01:33:16;;;;;;;4.95;1.98;;;10.20;89.20;;;;;;4936662;29;20043;-69
2021/12/04 01:36:20;;;;;;;3.05;1.50;;;10.20;88.60;;;;;;4936223;29;20055;-69
2021/12/04 01:39:24;;;;;;;5.00;1.40;;;10.30;87.70;;;;;;4936330;29;20042;-70
2021/12/04 01:42:29;;;;;;;2.10;1.10;;;10.30;87.90;;;;;;4936215;29;20067;-69
2021/12/04 01:45:33;;;;;;;2.70;1.10;;;10.40;87.30;;;;;;4936478;29;20062;-69
2021/12/04 01:48:37;;;;;;;2.05;1.30;;;10.40;87.30;;;;;;4936188;29;20055;-68
2021/12/04 01:51:41;;;;;;;3.10;1.17;;;10.50;87.00;;;;;;4935939;29;20050;-69
2021/12/04 01:54:46;;;;;;;2.42;0.80;;;10.60;86.60;;;;;;4936366;29;20039;-69
2021/12/04 01:57:50;;;;;;;2.33;0.70;;;10.70;86.20;;;;;;4936107;29;20044;-69
2021/12/04 02:00:54;;;;;;;4.45;1.50;;;10.80;86.20;;;;;;4936104;29;20424;-69
2021/12/04 02:03:58;;;;;;;9.07;1.05;;;10.80;85.90;;;;;;4936187;29;20063;-69
2021/12/04 02:07:04;;;;;;;2.97;0.70;;;10.80;85.80;;;;;;4935950;29;20042;-69
2021/12/04 02:10:09;;;;;;;3.05;0.82;;;10.80;85.30;;;;;;4935924;29;20051;-70
2021/12/04 02:13:15;;;;;;;4.15;1.15;;;10.90;84.20;;;;;;4936012;29;20047;-70
2021/12/04 02:16:21;;;;;;;0.93;0.60;;;11.00;84.00;;;;;;4935618;29;20054;-70
2021/12/04 02:19:25;;;;;;;1.88;0.70;;;11.00;83.30;;;;;;4935985;29;20039;-70
2021/12/04 02:22:29;;;;;;;4.50;0.82;;;11.10;83.20;;;;;;4935454;29;20519;-69
2021/12/04 02:25:34;;;;;;;1.27;0.80;;;11.10;82.20;;;;;;4935775;29;20046;-69
2021/12/04 02:28:38;;;;;;;3.75;1.15;;;11.00;83.80;;;;;;4935647;29;20050;-69
2021/12/04 02:31:51;;;;;;;4.00;1.40;;;11.00;83.90;;;;;;4935418;29;20046;-70
2021/12/04 02:34:55;;;;;;;4.03;1.45;;;11.00;84.00;;;;;;4935278;29;20062;-69
2021/12/04 02:37:59;;;;;;;3.55;1.20;;;10.90;85.00;;;;;;4935574;29;20531;-70
2021/12/04 02:41:03;;;;;;;2.72;1.50;;;10.80;84.70;;;;;;4934928;29;20051;-70
2021/12/04 02:44:07;;;;;;;4.20;1.52;;;10.60;85.00;;;;;;4935724;29;20491;-70
2021/12/04 02:47:12;;;;;;;6.40;1.73;;;10.40;85.80;;;;;;4934723;29;20050;-68
2021/12/04 02:50:17;;;;;;;2.75;1.30;;;10.30;86.50;;;;;;4935344;29;20050;-69
2021/12/04 02:53:21;;;;;;;2.72;1.30;;;10.30;86.50;;;;;;4935087;29;20051;-70
2021/12/04 02:56:26;;;;;;;4.07;1.60;;;10.30;88.10;;;;;;4935125;29;20120;-70
2021/12/04 02:59:31;;;;;;;4.10;1.52;;;10.30;87.30;;;;;;4934153;29;20303;-69
2021/12/04 03:02:35;;;;;;;4.32;1.35;;;10.30;86.30;;;;;;4934760;29;20055;-69
2021/12/04 03:05:39;;;;;;;2.80;1.40;;;10.30;86.30;;;;;;4934783;29;20043;-69
2021/12/04 03:08:44;;;;;;;2.47;1.25;;;10.40;86.30;;;;;;4934741;29;20050;-70
2021/12/04 03:11:48;;;;;;;5.85;1.90;;;10.30;87.10;;;;;;4934892;29;20054;-70
2021/12/04 03:14:53;;;;;;;2.58;1.42;;;10.30;87.90;;;;;;4934558;29;20038;-68
2021/12/04 03:17:57;;;;;;;3.83;1.85;;;10.30;88.30;;;;;;4934635;29;20050;-70
2021/12/04 03:21:03;;;;;;;2.67;1.40;;;10.20;89.00;;;;;;4934680;29;20046;-69
2021/12/04 03:24:11;;;;;;;4.65;1.52;;;10.10;90.10;;;;;;4934670;29;20062;-69
2021/12/04 03:27:17;;;;;;;3.65;1.20;;;10.10;90.30;;;;;;4933976;29;20043;-68
2021/12/04 03:30:41;;;;;;;2.42;1.23;;;10.20;89.10;;;;;;4934807;29;20051;-69
2021/12/04 03:43:47;;;;;;;3.33;1.50;;;10.00;89.20;;;;;;4933996;29;20059;-70
2021/12/04 03:46:52;;;;;;;3.92;1.92;;;9.90;88.90;;;;;;4933893;29;20058;-70
2021/12/04 03:49:57;;;;;;;5.75;1.60;;;9.70;89.40;;;;;;4933777;29;20040;-70
2021/12/04 03:53:01;;;;;;;3.55;1.45;;;9.60;89.10;;;;;;4933848;29;20043;-70
2021/12/04 03:56:06;;;;;;;3.60;1.27;;;9.70;89.50;;;;;;4934055;29;20039;-70
2021/12/04 03:59:10;;;;;;;3.92;1.30;;;9.70;89.20;;;;;;4933763;29;20050;-69
2021/12/04 04:02:16;;;;;;;3.08;1.45;;;9.70;87.60;;;;;;4933485;29;20060;-69
2021/12/04 04:05:20;;;;;;;6.72;1.55;;;9.90;87.50;;;;;;4933746;29;20035;-69
2021/12/04 04:08:24;;;;;;;4.53;1.33;;;10.00;87.10;;;;;;4933765;29;20066;-69
2021/12/04 04:11:28;;;;;;;2.97;1.30;;;10.00;87.00;;;;;;4932740;29;20051;-69
2021/12/04 04:14:32;;;;;;;5.65;1.33;;;10.10;85.10;;;;;;4933887;29;20050;-69
2021/12/04 04:17:42;;;;;;;5.90;1.70;;;10.10;86.30;;;;;;4933584;29;20042;-68
2021/12/04 04:20:46;;;;;;;6.00;1.50;;;10.00;85.50;;;;;;4934208;29;20478;-69
2021/12/04 04:23:50;;;;;;;2.92;1.30;;;10.10;85.90;;;;;;4933910;29;20055;-69
2021/12/04 04:26:54;;;;;;;5.25;1.55;;;10.10;86.30;;;;;;4933670;29;20448;-69
2021/12/04 04:29:58;;;;;;;2.60;1.50;;;10.20;86.10;;;;;;4933837;29;20067;-69
2021/12/04 04:33:03;;;;;;;4.40;1.63;;;10.30;86.10;;;;;;4933918;29;20287;-69
2021/12/04 04:36:22;;;;;;;5.18;1.70;;;10.20;86.00;;;;;;4933778;29;20068;-69
2021/12/04 05:00:05;;;;;;;4.03;1.80;;;9.60;87.80;;;;;;4933123;29;20036;-69
2021/12/04 05:13:06;;;;;;;4.53;1.90;;;9.30;89.40;;;;;;4936751;29;20500;-69
2021/12/04 05:16:14;;;;;;;4.95;2.25;;;9.30;90.40;;;;;;4936888;29;20455;-69
2021/12/04 05:22:41;;;;;;;7.78;2.80;;;9.20;91.10;;;;;;4937001;29;20403;-69
2021/12/04 05:25:45;;;;;;;7.50;2.53;;;9.20;91.50;;;;;;4936008;29;20047;-69
2021/12/04 05:28:49;;;;;;;7.40;2.25;;;9.10;91.80;;;;;;4936807;29;20044;-69
2021/12/04 05:31:53;;;;;;;10.23;2.42;;;9.00;92.30;;;;;;4936533;29;20409;-69
2021/12/04 05:34:58;;;;;;;10.45;3.00;;;8.90;92.60;;;;;;4936313;29;20508;-69
2021/12/04 05:38:02;;;;;;;11.65;3.83;;;8.80;92.70;;;;;;4936366;29;20412;-69
2021/12/04 05:41:06;;;;;;;7.40;2.58;;;8.80;92.80;;;;;;4936078;29;20043;-69
2021/12/04 05:44:11;;;;;;;8.55;3.00;;;8.70;92.90;;;;;;4936406;29;20404;-69
2021/12/04 05:50:41;;;;;;;6.38;2.97;;;8.50;93.30;;;;;;4936332;29;20534;-69
2021/12/04 05:56:52;;;;;;;9.50;3.10;;;8.40;93.10;;;;;;4936095;29;20050;-68
2021/12/04 05:59:56;;;;;;;5.13;2.45;;;8.30;93.40;;;;;;4935434;29;20054;-69
2021/12/04 06:03:00;;;;;;;4.82;2.70;;;8.10;93.20;;;;;;4935817;29;20047;-70
2021/12/04 06:06:05;;;;;;;4.03;2.55;;;8.20;93.50;;;;;;4936101;29;20066;-69
2021/12/04 06:09:10;;;;;;;13.05;3.33;;;8.10;93.50;;;;;;4936090;29;20400;-69
2021/12/04 06:12:14;;;;;;;10.73;3.63;;;8.10;93.80;;;;;;4935843;29;20051;-69
2021/12/04 06:15:17;;;;;;;6.32;3.00;;;8.10;94.00;;;;;;4935651;29;20051;-70
2021/12/04 06:18:22;;;;;;;8.40;2.70;;;8.10;94.20;;;;;;4935675;29;20035;-69
2021/12/04 06:24:48;;;;;;;6.85;2.55;;;8.00;93.50;;;;;;4935645;29;20437;-70
2021/12/04 06:27:53;;;;;;;8.20;3.00;;;7.80;93.40;;;;;;4934541;29;20043;-69
2021/12/04 06:30:59;;;;;;;10.40;3.72;;;7.80;93.90;;;;;;4935335;29;20048;-69
2021/12/04 06:34:03;;;;;;;6.38;3.53;;;7.90;94.00;;;;;;4934440;29;20042;-69
2021/12/04 06:37:08;;;;;;;4.05;2.72;;;7.90;93.90;;;;;;4935475;29;20040;-69
2021/12/04 06:40:12;;;;;;;7.10;3.38;;;7.90;93.70;;;;;;4934998;29;20523;-69
2021/12/04 06:43:18;;;;;;;8.20;3.42;;;7.80;93.90;;;;;;4935093;29;20135;-69
2021/12/04 06:46:23;;;;;;;8.73;4.03;;;7.80;94.20;;;;;;4935093;29;20047;-69
2021/12/04 06:49:45;;;;;;;20.02;10.32;;;7.90;94.30;;;;;;4935267;29;20046;-69
2021/12/04 06:52:49;;;;;;;11.57;6.57;;;7.90;94.20;;;;;;4935255;29;20046;-69
2021/12/04 06:55:56;;;;;;;14.63;5.20;;;7.90;94.10;;;;;;4934518;29;20058;-69
2021/12/04 06:59:05;;;;;;;11.43;6.70;;;7.90;94.30;;;;;;4934880;29;20042;-69
2021/12/04 07:02:09;;;;;;;18.92;10.57;;;7.90;94.20;;;;;;4934844;29;20047;-70
2021/12/04 07:05:12;;;;;;;17.95;8.13;;;8.00;94.10;;;;;;4934796;29;20054;-68
2021/12/04 07:08:17;;;;;;;14.27;6.75;;;8.10;94.20;;;;;;4934762;29;20047;-68
2021/12/04 07:11:21;;;;;;;11.27;6.95;;;8.20;94.20;;;;;;4934954;29;20050;-68
2021/12/04 07:14:25;;;;;;;14.88;7.32;;;8.30;94.10;;;;;;4934747;29;20054;-70
2021/12/04 07:17:28;;;;;;;18.42;7.90;;;8.40;94.20;;;;;;4934820;29;20046;-68
2021/12/04 07:20:32;;;;;;;15.75;7.50;;;8.50;94.30;;;;;;4934490;29;20047;-70
2021/12/04 07:23:38;;;;;;;10.75;6.43;;;8.60;94.30;;;;;;4934404;29;20054;-68
2021/12/04 07:26:42;;;;;;;12.93;7.35;;;8.70;94.00;;;;;;4933539;29;20050;-68
2021/12/04 07:29:46;;;;;;;16.38;6.45;;;8.80;93.50;;;;;;4934469;29;20047;-69
2021/12/04 07:32:51;;;;;;;15.02;6.57;;;8.90;93.10;;;;;;4933901;29;20054;-69
2021/12/04 07:35:57;;;;;;;11.05;5.68;;;9.00;93.20;;;;;;4934250;29;20412;-70
2021/12/04 07:39:02;;;;;;;8.77;4.60;;;9.10;93.40;;;;;;4933899;29;20059;-69
2021/12/04 07:42:07;;;;;;;15.25;5.13;;;9.20;92.60;;;;;;4933742;29;20059;-68
2021/12/04 07:45:11;;;;;;;8.25;4.57;;;9.30;92.20;;;;;;4934199;29;20055;-67
2021/12/04 07:48:14;;;;;;;9.80;3.90;;;9.40;92.10;;;;;;4934168;29;20032;-69
2021/12/04 07:51:19;;;;;;;18.17;5.10;;;9.50;91.40;;;;;;4933827;29;20039;-69
2021/12/04 07:54:23;;;;;;;13.57;5.30;;;9.50;91.30;;;;;;4934026;29;20400;-70
2021/12/04 07:57:27;;;;;;;9.25;4.80;;;9.60;91.20;;;;;;4933989;29;20400;-70
2021/12/04 08:00:30;;;;;;;9.68;5.60;;;9.60;91.30;;;;;;4933634;29;20055;-68
2021/12/04 08:03:34;;;;;;;11.27;5.65;;;9.70;91.00;;;;;;4933585;29;20517;-69
2021/12/04 08:06:38;;;;;;;14.02;6.85;;;9.80;90.80;;;;;;4933924;29;20070;-69
2021/12/04 08:09:42;;;;;;;18.02;6.75;;;10.00;91.00;;;;;;4934128;29;20059;-69
2021/12/04 08:12:47;;;;;;;15.13;9.00;;;10.10;91.00;;;;;;4933760;29;20043;-70
2021/12/04 08:15:51;;;;;;;19.33;6.78;;;10.20;90.40;;;;;;4933848;29;20050;-70
2021/12/04 08:18:55;;;;;;;14.88;6.28;;;10.30;90.00;;;;;;4933667;29;20499;-69
2021/12/04 08:21:59;;;;;;;12.88;7.22;;;10.40;89.60;;;;;;4932574;29;20404;-70
2021/12/04 08:25:05;;;;;;;11.48;6.78;;;10.70;89.70;;;;;;4934171;29;20483;-67
2021/12/04 08:28:09;;;;;;;14.50;6.88;;;10.80;88.30;;;;;;4932960;29;20063;-69
2021/12/04 08:31:14;;;;;;;15.90;6.53;;;11.10;88.20;;;;;;4934121;29;20059;-69
2021/12/04 08:34:18;;;;;;;14.23;6.13;;;11.40;86.70;;;;;;4933472;29;20067;-69
2021/12/04 08:37:22;;;;;;;17.27;7.78;;;11.70;85.00;;;;;;4933505;29;20535;-69
2021/12/04 08:40:31;;;;;;;13.27;6.82;;;12.00;84.90;;;;;;4933559;29;20400;-69
2021/12/04 08:43:35;;;;;;;11.20;6.05;;;12.30;84.50;;;;;;4932681;29;20059;-68
2021/12/04 08:46:39;;;;;;;13.02;6.38;;;12.70;84.30;;;;;;4936990;29;20055;-69
2021/12/04 08:49:43;;;;;;;9.65;5.43;;;13.00;83.40;;;;;;4937333;29;20050;-68
2021/12/04 08:52:48;;;;;;;8.20;5.65;;;13.30;81.70;;;;;;4937438;29;20058;-69
2021/12/04 08:55:53;;;;;;;14.93;6.38;;;13.60;80.80;;;;;;4937132;29;20050;-69
2021/12/04 08:58:57;;;;;;;12.77;8.50;;;13.80;77.80;;;;;;4937117;29;20043;-69
2021/12/04 09:02:03;;;;;;;10.02;5.95;;;13.70;76.40;;;;;;4937055;29;20075;-67
2021/12/04 09:05:09;;;;;;;9.40;5.82;;;13.80;77.80;;;;;;4936680;29;20058;-68
2021/12/04 09:08:13;;;;;;;8.88;5.28;;;14.10;78.30;;;;;;4936843;29;20054;-69
2021/12/04 09:11:25;;;;;;;17.48;6.90;;;14.30;77.60;;;;;;4935195;29;20043;-69
2021/12/04 09:14:33;;;;;;;13.10;7.30;;;14.60;77.60;;;;;;4935842;29;20043;-68
2021/12/04 09:17:37;;;;;;;20.05;8.13;;;14.80;76.10;;;;;;4936171;29;20050;-68
2021/12/04 09:20:41;;;;;;;12.88;6.13;;;15.00;75.50;;;;;;4936076;29;20050;-68
2021/12/04 09:23:50;;;;;;;13.55;6.95;;;15.10;75.00;;;;;;4936013;29;20058;-69
2021/12/04 09:27:07;;;;;;;11.25;5.95;;;15.30;75.10;;;;;;4936152;29;20108;-71
2021/12/04 10:00:41;;;;;;;32.88;12.93;;;15.40;69.20;;;;;;4935569;29;20039;-72
2021/12/04 10:17:45;;;;;;;19.27;8.88;;;16.30;68.50;;;;;;4935529;29;20043;-67
2021/12/04 10:34:49;;;;;;;17.25;8.15;;;16.70;67.60;;;;;;4934545;29;20050;-69
2021/12/04 10:38:00;;;;;;;13.80;6.95;;;16.80;65.90;;;;;;4934445;29;20491;-69
2021/12/04 10:41:04;;;;;;;13.25;5.85;;;16.70;66.60;;;;;;4934418;29;20054;-68
2021/12/04 10:44:14;;;;;;;13.35;6.05;;;16.50;65.30;;;;;;4933931;29;20408;-69
2021/12/04 10:47:26;;;;;;;10.85;5.68;;;16.50;65.80;;;;;;4934264;29;20039;-70
2021/12/04 10:53:47;;;;;;;6.97;3.45;;;16.60;67.60;;;;;;4933908;29;20403;-69
2021/12/04 11:03:24;;;;;;;6.75;3.58;;;16.80;67.70;;;;;;4933879;29;20503;-71
2021/12/04 11:06:46;;;;;;;5.85;2.60;;;16.70;67.50;;;;;;4934309;29;20059;-70
2021/12/04 11:20:43;;;;;;;5.95;2.25;;;16.70;68.60;;;;;;4933435;29;20499;-73
2021/12/04 11:47:09;;;;;;;5.38;3.22;;;15.90;71.90;;;;;;4933295;29;20046;-73
2021/12/04 11:50:29;;;;;;;9.23;3.85;;;15.90;72.30;;;;;;4933561;29;20046;-73
2021/12/04 11:53:34;;;;;;;4.95;2.90;;;15.90;72.70;;;;;;4933781;29;20043;-73
2021/12/04 11:56:38;;;;;;;7.13;3.03;;;15.80;71.90;;;;;;4934100;29;20046;-73
2021/12/04 11:59:44;;;;;;;8.30;2.90;;;15.80;71.70;;;;;;4934138;29;20043;-72
2021/12/04 12:02:51;;;;;;;8.05;3.35;;;15.80;72.20;;;;;;4933814;29;20043;-73
2021/12/04 12:06:04;;;;;;;10.18;3.10;;;15.80;73.10;;;;;;4933146;29;20046;-73
2021/12/04 12:09:12;;;;;;;11.68;3.80;;;15.80;73.30;;;;;;4933897;29;20051;-73
2021/12/04 12:12:17;;;;;;;6.30;3.00;;;15.70;72.30;;;;;;4933646;29;20503;-74
2021/12/04 12:15:34;;;;;;;4.90;2.45;;;15.70;73.00;;;;;;4933662;29;20051;-72
2021/12/04 12:18:45;;;;;;;8.75;2.83;;;15.70;73.60;;;;;;4933931;29;20042;-74
2021/12/04 12:21:56;;;;;;;9.43;3.53;;;15.70;74.70;;;;;;4933475;29;20050;-73
2021/12/04 12:25:38;;;;;;;6.57;2.83;;;15.60;75.20;;;;;;4933470;29;20519;-73
2021/12/04 12:32:21;;;;;;;5.28;1.92;;;15.60;76.30;;;;;;4933730;29;20055;-72
2021/12/04 12:39:05;;;;;;;4.88;1.80;;;15.60;77.60;;;;;;4932509;29;20067;-73
2021/12/04 12:42:09;;;;;;;4.28;2.10;;;15.50;77.40;;;;;;4933746;29;20423;-74
2021/12/04 12:45:31;;;;;;;4.55;1.85;;;15.50;78.30;;;;;;4933419;29;20051;-74
2021/12/04 12:48:54;;;;;;;3.03;1.77;;;15.40;78.00;;;;;;4933383;29;20408;-72
2021/12/04 12:52:04;;;;;;;7.63;3.85;;;15.40;78.90;;;;;;4933419;29;20043;-72
2021/12/04 12:55:11;;;;;;;4.85;3.13;;;15.40;78.90;;;;;;4933326;29;20047;-74
2021/12/04 12:58:24;;;;;;;7.72;2.08;;;15.30;78.00;;;;;;4933433;29;20054;-73
2021/12/04 13:12:17;;;;;;;4.18;1.85;;;15.10;81.30;;;;;;4933520;29;20047;-72
2021/12/04 13:15:38;;;;;;;5.03;2.15;;;15.10;79.90;;;;;;4933329;29;20047;-73
2021/12/04 13:18:50;;;;;;;5.35;1.45;;;15.10;76.40;;;;;;4933235;29;20055;-73
2021/12/04 13:21:59;;;;;;;5.30;2.25;;;15.00;76.60;;;;;;4933376;29;20050;-72
2021/12/04 13:25:10;;;;;;;5.88;1.55;;;15.00;75.90;;;;;;4932908;29;20400;-73
2021/12/04 13:28:20;;;;;;;4.00;1.60;;;14.90;78.30;;;;;;4933158;29;20364;-73
2021/12/04 13:31:24;;;;;;;7.75;1.85;;;14.90;75.80;;;;;;4934700;29;20054;-72
2021/12/04 13:34:29;;;;;;;6.93;1.70;;;14.80;73.90;;;;;;4936475;29;20055;-73
2021/12/04 13:37:33;;;;;;;3.50;1.70;;;14.70;75.50;;;;;;4936359;29;20047;-70
2021/12/04 13:40:39;;;;;;;7.65;2.17;;;14.60;76.30;;;;;;4936702;29;20051;-70
2021/12/04 13:43:52;;;;;;;6.13;1.85;;;14.60;77.10;;;;;;4936423;29;20054;-71
2021/12/04 13:47:08;;;;;;;2.83;1.33;;;14.50;74.20;;;;;;4936326;29;20039;-71
2021/12/04 13:53:39;;;;;;;4.35;1.77;;;14.40;78.10;;;;;;4936915;29;20241;-70
2021/12/04 13:56:44;;;;;;;5.20;1.58;;;14.40;77.90;;;;;;4936428;29;20043;-71
2021/12/04 13:59:48;;;;;;;5.15;1.98;;;14.30;74.70;;;;;;4936246;29;20137;-72
2021/12/04 14:02:52;;;;;;;7.90;1.70;;;14.30;76.40;;;;;;4936120;29;20066;-70
2021/12/04 14:05:56;;;;;;;5.20;2.55;;;14.40;80.80;;;;;;4936223;29;20055;-72
2021/12/04 14:09:07;;;;;;;8.43;3.15;;;14.30;76.90;;;;;;4935678;29;20046;-74
2021/12/04 14:12:11;;;;;;;7.15;3.05;;;14.30;77.20;;;;;;4935084;29;20055;-73
2021/12/04 14:15:19;;;;;;;7.05;2.40;;;14.20;79.80;;;;;;4935242;29;20066;-73
2021/12/04 14:18:26;;;;;;;4.82;2.15;;;14.20;78.20;;;;;;4936112;29;20054;-74
2021/12/04 14:21:30;;;;;;;3.92;2.45;;;14.20;76.20;;;;;;4936027;29;20046;-74
2021/12/04 14:24:42;;;;;;;6.43;2.67;;;14.20;74.70;;;;;;4935668;29;20054;-73
2021/12/04 14:27:47;;;;;;;8.65;2.15;;;14.20;76.60;;;;;;4935035;29;20559;-72
2021/12/04 14:30:52;;;;;;;7.35;3.47;;;14.20;75.40;;;;;;4934727;29;20054;-72
2021/12/04 14:33:56;;;;;;;11.65;4.63;;;14.20;74.60;;;;;;4935582;29;20047;-73
2021/12/04 14:37:10;;;;;;;11.40;4.93;;;14.20;74.20;;;;;;4935320;29;20047;-74
2021/12/04 14:40:28;;;;;;;10.73;4.00;;;14.10;74.20;;;;;;4935197;29;20344;-74
2021/12/04 14:43:35;;;;;;;5.90;3.70;;;14.10;74.20;;;;;;4934081;29;20064;-74
2021/12/04 14:46:40;;;;;;;7.10;3.38;;;14.00;73.90;;;;;;4935295;29;20059;-72
2021/12/04 14:49:46;;;;;;;12.93;3.45;;;14.00;74.30;;;;;;4934956;29;20326;-72
2021/12/04 14:52:53;;;;;;;5.10;2.47;;;14.00;74.60;;;;;;4935243;29;20050;-71
2021/12/04 14:55:58;;;;;;;9.35;4.13;;;14.00;74.50;;;;;;4935196;29;20046;-73
2021/12/04 14:59:13;;;;;;;16.38;7.60;;;14.00;74.50;;;;;;4935137;29;20070;-73
2021/12/04 15:02:21;;;;;;;13.05;8.05;;;14.00;75.50;;;;;;4934954;29;20047;-74
2021/12/04 15:05:33;;;;;;;22.17;8.93;;;13.90;75.70;;;;;;4934684;29;20059;-73
2021/12/04 15:08:46;;;;;;;19.23;9.55;;;13.90;76.00;;;;;;4934961;29;20117;-72
2021/12/04 15:11:50;;;;;;;20.13;9.98;;;13.80;76.70;;;;;;4934548;29;20046;-73
2021/12/04 15:14:57;;;;;;;18.92;9.85;;;13.80;77.20;;;;;;4933483;29;20050;-72
2021/12/04 15:18:09;;;;;;;17.33;8.48;;;13.70;77.50;;;;;;4934362;29;20059;-75
2021/12/04 15:21:17;;;;;;;15.40;7.15;;;13.70;77.80;;;;;;4934363;29;20491;-76
2021/12/04 15:24:25;;;;;;;23.90;8.18;;;13.70;78.20;;;;;;4934315;29;20063;-75
2021/12/04 15:27:30;;;;;;;12.75;7.53;;;13.60;77.60;;;;;;4934537;29;20046;-76
2021/12/04 15:30:34;;;;;;;19.90;8.18;;;13.60;78.00;;;;;;4934185;29;20047;-76
2021/12/04 15:33:41;;;;;;;20.60;8.32;;;13.50;77.80;;;;;;4934435;29;20050;-75
2021/12/04 15:36:49;;;;;;;16.58;7.80;;;13.50;78.80;;;;;;4934158;29;20050;-75
2021/12/04 15:39:53;;;;;;;9.13;4.65;;;13.40;79.90;;;;;;4934390;29;20046;-77
2021/12/04 15:43:11;;;;;;;13.30;4.20;;;13.50;81.60;;;;;;4934333;29;20039;-74
2021/12/04 15:46:22;;;;;;;14.60;4.90;;;13.40;81.90;;;;;;4934009;29;20067;-75
2021/12/04 15:55:56;;;;;;;10.57;3.80;;;13.20;83.40;;;;;;4934200;29;20050;-77
2021/12/04 15:59:00;;;;;;;19.38;4.75;;;13.20;83.00;;;;;;4933725;29;20062;-76
2021/12/04 16:02:19;;;;;;;18.25;7.07;;;13.20;84.10;;;;;;4932926;29;20483;-77
2021/12/04 16:05:25;;;;;;;19.98;7.82;;;13.20;85.20;;;;;;4933204;29;20080;-77
2021/12/04 16:08:30;;;;;;;89.22;37.88;;;13.30;81.40;;;;;;4932839;29;20050;-77
2021/12/04 16:11:40;;;;;;;92.75;47.70;;;13.30;81.40;;;;;;4933347;29;20063;-75
2021/12/04 16:14:50;;;;;;;78.18;39.10;;;13.30;81.50;;;;;;4933426;29;20046;-75
2021/12/04 16:17:55;;;;;;;63.70;34.92;;;13.30;81.90;;;;;;4933653;29;20066;-75
2021/12/04 16:21:00;;;;;;;49.95;30.40;;;13.30;81.80;;;;;;4933535;29;20400;-74
2021/12/04 16:24:08;;;;;;;49.90;26.95;;;13.30;82.00;;;;;;4933475;29;20054;-75
2021/12/04 16:27:17;;;;;;;52.40;27.77;;;13.40;82.60;;;;;;4933975;29;20062;-76
2021/12/04 16:33:38;;;;;;;44.05;26.17;;;13.30;81.80;;;;;;4933526;29;20042;-74
2021/12/04 16:36:44;;;;;;;40.33;26.50;;;13.30;81.40;;;;;;4933151;29;20055;-75
2021/12/04 16:39:49;;;;;;;40.65;23.23;;;13.30;82.60;;;;;;4933434;29;20487;-76
2021/12/04 16:43:02;;;;;;;41.78;24.23;;;13.30;81.40;;;;;;4933514;29;20066;-75
2021/12/04 16:46:10;;;;;;;43.45;26.35;;;13.30;81.60;;;;;;4932643;29;20066;-75
2021/12/04 16:49:14;;;;;;;43.92;26.92;;;13.30;82.30;;;;;;4932975;29;20051;-74
2021/12/04 16:58:47;;;;;;;38.17;25.25;;;13.20;82.00;;;;;;4932944;29;20047;-76
2021/12/04 17:01:54;;;;;;;41.00;25.40;;;13.30;81.90;;;;;;4933000;29;20043;-77
2021/12/04 17:04:58;;;;;;;43.08;27.02;;;13.20;82.80;;;;;;4932365;29;20051;-77
2021/12/04 17:08:03;;;;;;;48.97;27.00;;;13.10;83.20;;;;;;4936455;29;20083;-78
2021/12/04 17:11:07;;;;;;;42.63;25.17;;;13.00;82.90;;;;;;4936609;29;20055;-77
2021/12/04 17:14:12;;;;;;;48.88;28.48;;;12.90;84.60;;;;;;4936431;29;20059;-77
2021/12/04 17:17:23;;;;;;;47.58;28.27;;;12.90;84.70;;;;;;4936380;29;20047;-77
2021/12/04 17:20:27;;;;;;;48.75;28.40;;;12.90;85.70;;;;;;4936153;29;20091;-75
2021/12/04 17:23:31;;;;;;;65.63;36.67;;;12.80;85.80;;;;;;4936507;29;20624;-77
2021/12/04 17:26:36;;;;;;;52.70;36.72;;;12.70;87.00;;;;;;4936703;29;20480;-75
2021/12/04 17:29:41;;;;;;;65.53;39.50;;;12.60;87.70;;;;;;4936632;29;20047;-76
2021/12/04 17:32:47;;;;;;;59.53;39.35;;;12.60;88.00;;;;;;4936355;29;20507;-77
2021/12/04 17:35:51;;;;;;;57.63;32.85;;;12.50;87.40;;;;;;4936150;29;20527;-76
2021/12/04 17:38:56;;;;;;;49.70;31.60;;;12.50;87.10;;;;;;4936244;29;20047;-76
2021/12/04 17:42:00;;;;;;;49.40;31.10;;;12.40;87.70;;;;;;4936026;29;20047;-77
2021/12/04 17:45:05;;;;;;;47.90;29.95;;;12.50;87.60;;;;;;4935814;29;20419;-77
2021/12/04 17:48:11;;;;;;;44.83;29.60;;;12.50;87.20;;;;;;4935303;29;20523;-75
2021/12/04 17:51:17;;;;;;;43.50;27.65;;;12.50;88.40;;;;;;4935851;29;20042;-77
2021/12/04 17:54:22;;;;;;;40.60;27.92;;;12.50;89.90;;;;;;4936107;29;20051;-78
2021/12/04 17:57:26;;;;;;;40.47;27.63;;;12.30;90.40;;;;;;4936099;29;20055;-75
2021/12/04 18:00:40;;;;;;;45.13;30.55;;;12.20;91.00;;;;;;4935081;29;20109;-77
2021/12/04 18:03:45;;;;;;;53.55;32.58;;;12.00;91.80;;;;;;4936132;29;20384;-76
2021/12/04 18:06:49;;;;;;;55.13;32.85;;;11.90;92.50;;;;;;4936152;29;20051;-76
2021/12/04 18:09:57;;;;;;;53.67;32.05;;;11.80;93.20;;;;;;4935737;29;20043;-75
2021/12/04 18:13:05;;;;;;;46.83;31.40;;;11.70;93.90;;;;;;4935586;29;20051;-76
2021/12/04 18:16:15;;;;;;;58.25;36.47;;;11.70;94.80;;;;;;4935691;29;20287;-77
2021/12/04 18:19:22;;;;;;;55.47;36.13;;;11.50;95.20;;;;;;4934658;29;20047;-78
2021/12/04 18:22:26;;;;;;;59.53;40.60;;;11.50;96.20;;;;;;4934220;29;20042;-77
2021/12/04 18:25:30;;;;;;;60.47;40.45;;;11.50;96.40;;;;;;4935423;29;20074;-77
2021/12/04 18:28:35;;;;;;;87.68;50.85;;;11.40;96.90;;;;;;4935427;29;20058;-76
2021/12/04 18:31:41;;;;;;;73.45;42.70;;;11.20;97.20;;;;;;4935193;29;20051;-76
2021/12/04 18:34:45;;;;;;;63.22;40.10;;;11.20;97.70;;;;;;4934786;29;20519;-77
2021/12/04 18:37:50;;;;;;;57.83;36.78;;;11.20;98.10;;;;;;4935421;29;20039;-76
2021/12/04 18:40:56;;;;;;;61.95;39.92;;;11.30;98.50;;;;;;4935284;29;20059;-76
2021/12/04 18:44:03;;;;;;;68.88;40.63;;;11.50;98.20;;;;;;4934087;29;20435;-76
2021/12/04 18:47:07;;;;;;;55.60;36.05;;;11.60;97.80;;;;;;4935045;29;20046;-76
2021/12/04 18:50:15;;;;;;;55.28;36.95;;;11.70;97.70;;;;;;4934563;29;20043;-76
2021/12/04 18:53:19;;;;;;;51.20;36.15;;;11.60;98.00;;;;;;4934586;29;20069;-77
2021/12/04 18:56:24;;;;;;;43.63;29.90;;;11.60;98.50;;;;;;4934697;29;20047;-76
2021/12/04 18:59:28;;;;;;;59.30;34.42;;;11.60;98.20;;;;;;4934852;29;20396;-76
2021/12/04 19:02:32;;;;;;;53.83;33.95;;;11.50;98.10;;;;;;4934539;29;20046;-76
2021/12/04 19:05:39;;;;;;;42.67;28.88;;;11.40;98.40;;;;;;4934442;29;20066;-77
2021/12/04 19:08:47;;;;;;;47.90;31.67;;;11.30;99.40;;;;;;4934572;29;20392;-76
2021/12/04 19:11:53;;;;;;;51.03;31.13;;;11.40;99.40;;;;;;4933711;29;20062;-75
2021/12/04 19:14:57;;;;;;;50.65;32.50;;;11.50;99.60;;;;;;4934379;29;20195;-76
2021/12/04 19:18:04;;;;;;;44.90;30.27;;;11.60;99.40;;;;;;4934382;29;20552;-77
2021/12/04 19:21:09;;;;;;;37.85;25.92;;;11.50;99.10;;;;;;4934415;29;20043;-75
2021/12/04 19:24:13;;;;;;;38.97;25.13;;;11.50;99.60;;;;;;4933828;29;20050;-76
2021/12/04 19:27:17;;;;;;;34.00;23.70;;;11.30;99.80;;;;;;4934063;29;20523;-77